sensor_id;sensor_type;location;lat;lon;timestamp;P1;durP1;ratioP1;P2;durP2;ratioP2
62863;SDS011;48954;59.950;11.014;2022-08-19T00:01:55;22.70;;;14.20;;
62863;SDS011;48954;59.950;11.014;2022-08-19T00:04:24;25.00;;;14.80;;
62863;SDS011;48954;59.950;11.014;2022-08-19T00:06:54;24.60;;;14.10;;
62863;SDS011;48954;59.950;11.014;2022-08-19T00:09:21;19.30;;;11.90;;
62863;SDS011;48954;59.950;11.014;2022-08-19T00:11:49;20.40;;;12.10;;
62863;SDS011;48954;59.950;11.014;2022-08-19T00:14:16;19.00;;;12.20;;
62863;SDS011;48954;59.950;11.014;2022-08-19T00:16:44;24.00;;;13.30;;
62863;SDS011;48954;59.950;11.014;2022-08-19T00:19:15;20.30;;;12.70;;
62863;SDS011;48954;59.950;11.014;2022-08-19T00:21:42;22.70;;;12.80;;
62863;SDS011;48954;59.950;11.014;2022-08-19T00:24:10;20.30;;;12.10;;
62863;SDS011;48954;59.950;11.014;2022-08-19T00:26:39;21.50;;;12.90;;
62863;SDS011;48954;59.950;11.014;2022-08-19T00:29:07;23.20;;;13.20;;
62863;SDS011;48954;59.950;11.014;2022-08-19T00:31:36;20.50;;;12.80;;
62863;SDS011;48954;59.950;11.014;2022-08-19T00:34:02;19.70;;;12.80;;
62863;SDS011;48954;59.950;11.014;2022-08-19T00:36:29;23.10;;;12.00;;
62863;SDS011;48954;59.950;11.014;2022-08-19T00:38:56;22.30;;;13.10;;
62863;SDS011;48954;59.950;11.014;2022-08-19T00:41:23;18.20;;;12.30;;
62863;SDS011;48954;59.950;11.014;2022-08-19T00:44:00;19.60;;;12.60;;
62863;SDS011;48954;59.950;11.014;2022-08-19T00:46:36;22.00;;;12.10;;
62863;SDS011;48954;59.950;11.014;2022-08-19T00:49:12;22.60;;;12.80;;
62863;SDS011;48954;59.950;11.014;2022-08-19T00:51:42;21.30;;;12.30;;
62863;SDS011;48954;59.950;11.014;2022-08-19T00:54:11;18.30;;;11.80;;
62863;SDS011;48954;59.950;11.014;2022-08-19T00:56:38;21.10;;;11.90;;
62863;SDS011;48954;59.950;11.014;2022-08-19T00:59:05;21.20;;;12.00;;
62863;SDS011;48954;59.950;11.014;2022-08-19T01:01:32;19.00;;;12.00;;
62863;SDS011;48954;59.950;11.014;2022-08-19T01:03:59;22.70;;;12.20;;
62863;SDS011;48954;59.950;11.014;2022-08-19T01:06:25;19.40;;;11.90;;
62863;SDS011;48954;59.950;11.014;2022-08-19T01:08:54;18.00;;;11.90;;
62863;SDS011;48954;59.950;11.014;2022-08-19T01:11:20;22.20;;;12.50;;
62863;SDS011;48954;59.950;11.014;2022-08-19T01:13:47;22.70;;;12.80;;
62863;SDS011;48954;59.950;11.014;2022-08-19T01:16:16;20.50;;;12.40;;
62863;SDS011;48954;59.950;11.014;2022-08-19T01:18:45;20.50;;;12.90;;
62863;SDS011;48954;59.950;11.014;2022-08-19T01:21:13;24.50;;;13.40;;
62863;SDS011;48954;59.950;11.014;2022-08-19T01:23:58;19.90;;;12.60;;
62863;SDS011;48954;59.950;11.014;2022-08-19T01:26:26;18.80;;;13.00;;
62863;SDS011;48954;59.950;11.014;2022-08-19T01:28:54;25.50;;;13.10;;
62863;SDS011;48954;59.950;11.014;2022-08-19T01:31:24;22.00;;;13.70;;
62863;SDS011;48954;59.950;11.014;2022-08-19T01:33:53;22.00;;;13.10;;
62863;SDS011;48954;59.950;11.014;2022-08-19T01:36:22;23.40;;;12.80;;
62863;SDS011;48954;59.950;11.014;2022-08-19T01:38:49;20.40;;;12.70;;
62863;SDS011;48954;59.950;11.014;2022-08-19T01:41:17;19.50;;;12.50;;
62863;SDS011;48954;59.950;11.014;2022-08-19T01:43:44;20.10;;;12.90;;
62863;SDS011;48954;59.950;11.014;2022-08-19T01:46:11;22.30;;;13.40;;
62863;SDS011;48954;59.950;11.014;2022-08-19T01:48:38;20.80;;;14.40;;
62863;SDS011;48954;59.950;11.014;2022-08-19T01:51:06;22.80;;;14.00;;
62863;SDS011;48954;59.950;11.014;2022-08-19T01:53:34;23.10;;;15.20;;
62863;SDS011;48954;59.950;11.014;2022-08-19T01:56:01;21.10;;;13.70;;
62863;SDS011;48954;59.950;11.014;2022-08-19T01:58:32;24.90;;;15.10;;
62863;SDS011;48954;59.950;11.014;2022-08-19T02:01:03;25.00;;;16.30;;
62863;SDS011;48954;59.950;11.014;2022-08-19T02:03:30;25.40;;;15.50;;
62863;SDS011;48954;59.950;11.014;2022-08-19T02:06:00;27.40;;;16.80;;
62863;SDS011;48954;59.950;11.014;2022-08-19T02:08:27;25.80;;;15.70;;
62863;SDS011;48954;59.950;11.014;2022-08-19T02:10:55;21.90;;;14.90;;
62863;SDS011;48954;59.950;11.014;2022-08-19T02:13:23;25.40;;;15.70;;
62863;SDS011;48954;59.950;11.014;2022-08-19T02:15:50;22.80;;;13.90;;
62863;SDS011;48954;59.950;11.014;2022-08-19T02:18:17;23.10;;;14.00;;
62863;SDS011;48954;59.950;11.014;2022-08-19T02:20:44;23.40;;;14.70;;
62863;SDS011;48954;59.950;11.014;2022-08-19T02:23:11;21.30;;;14.60;;
62863;SDS011;48954;59.950;11.014;2022-08-19T02:25:38;24.90;;;15.50;;
62863;SDS011;48954;59.950;11.014;2022-08-19T02:28:05;23.40;;;15.00;;
62863;SDS011;48954;59.950;11.014;2022-08-19T02:30:32;27.30;;;15.90;;
62863;SDS011;48954;59.950;11.014;2022-08-19T02:32:59;24.50;;;14.60;;
62863;SDS011;48954;59.950;11.014;2022-08-19T02:35:25;25.50;;;15.20;;
62863;SDS011;48954;59.950;11.014;2022-08-19T02:37:51;26.10;;;14.90;;
62863;SDS011;48954;59.950;11.014;2022-08-19T02:40:18;24.50;;;14.50;;
62863;SDS011;48954;59.950;11.014;2022-08-19T02:42:45;23.10;;;14.80;;
62863;SDS011;48954;59.950;11.014;2022-08-19T02:45:12;24.70;;;15.50;;
62863;SDS011;48954;59.950;11.014;2022-08-19T02:47:40;22.40;;;14.30;;
62863;SDS011;48954;59.950;11.014;2022-08-19T02:50:06;21.70;;;14.80;;
62863;SDS011;48954;59.950;11.014;2022-08-19T02:52:33;24.50;;;15.30;;
62863;SDS011;48954;59.950;11.014;2022-08-19T02:55:00;21.60;;;13.50;;
62863;SDS011;48954;59.950;11.014;2022-08-19T02:57:32;20.50;;;13.40;;
62863;SDS011;48954;59.950;11.014;2022-08-19T02:59:59;22.40;;;14.30;;
62863;SDS011;48954;59.950;11.014;2022-08-19T03:02:26;24.50;;;14.30;;
62863;SDS011;48954;59.950;11.014;2022-08-19T03:04:52;21.70;;;14.70;;
62863;SDS011;48954;59.950;11.014;2022-08-19T03:07:18;24.60;;;15.30;;
62863;SDS011;48954;59.950;11.014;2022-08-19T03:09:45;22.80;;;14.40;;
62863;SDS011;48954;59.950;11.014;2022-08-19T03:12:11;24.60;;;14.80;;
62863;SDS011;48954;59.950;11.014;2022-08-19T03:14:37;22.70;;;15.20;;
62863;SDS011;48954;59.950;11.014;2022-08-19T03:17:09;23.10;;;14.60;;
62863;SDS011;48954;59.950;11.014;2022-08-19T03:19:35;23.90;;;15.10;;
62863;SDS011;48954;59.950;11.014;2022-08-19T03:22:02;23.70;;;15.20;;
62863;SDS011;48954;59.950;11.014;2022-08-19T03:24:28;21.90;;;14.90;;
62863;SDS011;48954;59.950;11.014;2022-08-19T03:26:54;21.40;;;14.30;;
62863;SDS011;48954;59.950;11.014;2022-08-19T03:29:21;22.50;;;15.00;;
62863;SDS011;48954;59.950;11.014;2022-08-19T03:31:48;21.50;;;15.10;;
62863;SDS011;48954;59.950;11.014;2022-08-19T03:34:17;24.20;;;15.70;;
62863;SDS011;48954;59.950;11.014;2022-08-19T03:36:47;22.50;;;15.60;;
62863;SDS011;48954;59.950;11.014;2022-08-19T03:39:14;21.90;;;14.70;;
62863;SDS011;48954;59.950;11.014;2022-08-19T03:41:41;22.60;;;15.50;;
62863;SDS011;48954;59.950;11.014;2022-08-19T03:44:09;24.00;;;15.10;;
62863;SDS011;48954;59.950;11.014;2022-08-19T03:46:35;25.10;;;15.30;;
62863;SDS011;48954;59.950;11.014;2022-08-19T03:49:03;21.70;;;14.70;;
62863;SDS011;48954;59.950;11.014;2022-08-19T03:51:31;24.90;;;15.90;;
62863;SDS011;48954;59.950;11.014;2022-08-19T03:54:00;22.00;;;15.00;;
62863;SDS011;48954;59.950;11.014;2022-08-19T03:56:29;24.90;;;15.80;;
62863;SDS011;48954;59.950;11.014;2022-08-19T03:58:56;24.50;;;16.00;;
62863;SDS011;48954;59.950;11.014;2022-08-19T04:01:25;23.30;;;15.70;;
62863;SDS011;48954;59.950;11.014;2022-08-19T04:03:54;21.60;;;14.80;;
62863;SDS011;48954;59.950;11.014;2022-08-19T04:06:24;23.90;;;15.80;;
62863;SDS011;48954;59.950;11.014;2022-08-19T04:08:57;24.90;;;15.40;;
62863;SDS011;48954;59.950;11.014;2022-08-19T04:11:26;25.50;;;14.90;;
62863;SDS011;48954;59.950;11.014;2022-08-19T04:14:02;23.70;;;14.50;;
62863;SDS011;48954;59.950;11.014;2022-08-19T04:16:29;25.90;;;15.20;;
62863;SDS011;48954;59.950;11.014;2022-08-19T04:18:56;24.30;;;15.10;;
62863;SDS011;48954;59.950;11.014;2022-08-19T04:21:25;24.90;;;14.70;;
62863;SDS011;48954;59.950;11.014;2022-08-19T04:23:53;19.30;;;13.20;;
62863;SDS011;48954;59.950;11.014;2022-08-19T04:26:22;20.20;;;14.20;;
62863;SDS011;48954;59.950;11.014;2022-08-19T04:28:50;23.20;;;15.80;;
62863;SDS011;48954;59.950;11.014;2022-08-19T04:31:19;22.00;;;14.40;;
62863;SDS011;48954;59.950;11.014;2022-08-19T04:33:48;20.80;;;14.70;;
62863;SDS011;48954;59.950;11.014;2022-08-19T04:36:18;19.50;;;13.70;;
62863;SDS011;48954;59.950;11.014;2022-08-19T04:38:49;20.10;;;13.30;;
62863;SDS011;48954;59.950;11.014;2022-08-19T04:41:18;21.10;;;13.80;;
62863;SDS011;48954;59.950;11.014;2022-08-19T04:43:45;19.10;;;12.30;;
62863;SDS011;48954;59.950;11.014;2022-08-19T04:46:12;18.00;;;12.40;;
62863;SDS011;48954;59.950;11.014;2022-08-19T04:48:39;20.50;;;13.50;;
62863;SDS011;48954;59.950;11.014;2022-08-19T04:51:07;16.90;;;12.50;;
62863;SDS011;48954;59.950;11.014;2022-08-19T04:53:36;23.10;;;14.00;;
62863;SDS011;48954;59.950;11.014;2022-08-19T04:56:05;18.80;;;12.70;;
62863;SDS011;48954;59.950;11.014;2022-08-19T04:58:39;17.10;;;11.80;;
62863;SDS011;48954;59.950;11.014;2022-08-19T05:01:11;17.10;;;11.80;;
62863;SDS011;48954;59.950;11.014;2022-08-19T05:03:39;22.40;;;12.30;;
62863;SDS011;48954;59.950;11.014;2022-08-19T05:06:07;17.10;;;11.60;;
62863;SDS011;48954;59.950;11.014;2022-08-19T05:08:35;19.80;;;11.50;;
62863;SDS011;48954;59.950;11.014;2022-08-19T05:11:07;14.20;;;10.80;;
62863;SDS011;48954;59.950;11.014;2022-08-19T05:13:39;16.30;;;10.70;;
62863;SDS011;48954;59.950;11.014;2022-08-19T05:16:06;14.90;;;9.70;;
62863;SDS011;48954;59.950;11.014;2022-08-19T05:18:41;14.00;;;9.70;;
62863;SDS011;48954;59.950;11.014;2022-08-19T05:21:09;14.00;;;10.60;;
62863;SDS011;48954;59.950;11.014;2022-08-19T05:23:41;10.40;;;8.30;;
62863;SDS011;48954;59.950;11.014;2022-08-19T05:26:08;13.30;;;9.20;;
62863;SDS011;48954;59.950;11.014;2022-08-19T05:28:38;12.10;;;9.30;;
62863;SDS011;48954;59.950;11.014;2022-08-19T05:31:13;12.00;;;8.80;;
62863;SDS011;48954;59.950;11.014;2022-08-19T05:33:43;9.90;;;7.80;;
62863;SDS011;48954;59.950;11.014;2022-08-19T05:36:12;9.50;;;7.60;;
62863;SDS011;48954;59.950;11.014;2022-08-19T05:38:39;12.40;;;8.10;;
62863;SDS011;48954;59.950;11.014;2022-08-19T05:41:09;9.90;;;8.00;;
62863;SDS011;48954;59.950;11.014;2022-08-19T05:43:39;11.00;;;8.10;;
62863;SDS011;48954;59.950;11.014;2022-08-19T05:46:06;11.20;;;7.80;;
62863;SDS011;48954;59.950;11.014;2022-08-19T05:48:33;10.80;;;7.00;;
62863;SDS011;48954;59.950;11.014;2022-08-19T05:51:06;9.50;;;7.10;;
62863;SDS011;48954;59.950;11.014;2022-08-19T05:53:40;9.20;;;7.10;;
62863;SDS011;48954;59.950;11.014;2022-08-19T05:56:09;9.60;;;6.50;;
62863;SDS011;48954;59.950;11.014;2022-08-19T05:58:39;7.00;;;6.20;;
62863;SDS011;48954;59.950;11.014;2022-08-19T06:01:09;8.80;;;6.40;;
62863;SDS011;48954;59.950;11.014;2022-08-19T06:03:41;7.60;;;6.00;;
62863;SDS011;48954;59.950;11.014;2022-08-19T06:06:08;8.40;;;6.20;;
62863;SDS011;48954;59.950;11.014;2022-08-19T06:08:36;10.10;;;6.50;;
62863;SDS011;48954;59.950;11.014;2022-08-19T06:11:13;7.10;;;5.80;;
62863;SDS011;48954;59.950;11.014;2022-08-19T06:13:46;7.00;;;5.10;;
62863;SDS011;48954;59.950;11.014;2022-08-19T06:16:27;7.70;;;5.60;;
62863;SDS011;48954;59.950;11.014;2022-08-19T06:18:55;8.50;;;6.00;;
62863;SDS011;48954;59.950;11.014;2022-08-19T06:21:43;8.70;;;5.10;;
62863;SDS011;48954;59.950;11.014;2022-08-19T06:24:12;7.90;;;5.30;;
62863;SDS011;48954;59.950;11.014;2022-08-19T06:26:42;6.60;;;5.00;;
62863;SDS011;48954;59.950;11.014;2022-08-19T06:29:12;7.60;;;5.20;;
62863;SDS011;48954;59.950;11.014;2022-08-19T06:31:46;6.20;;;4.80;;
62863;SDS011;48954;59.950;11.014;2022-08-19T06:34:14;6.50;;;5.10;;
62863;SDS011;48954;59.950;11.014;2022-08-19T06:36:43;6.80;;;4.60;;
62863;SDS011;48954;59.950;11.014;2022-08-19T06:39:16;6.30;;;4.80;;
62863;SDS011;48954;59.950;11.014;2022-08-19T06:41:54;7.40;;;5.00;;
62863;SDS011;48954;59.950;11.014;2022-08-19T06:44:26;6.00;;;4.70;;
62863;SDS011;48954;59.950;11.014;2022-08-19T06:46:55;6.30;;;4.30;;
62863;SDS011;48954;59.950;11.014;2022-08-19T06:49:23;6.60;;;4.40;;
62863;SDS011;48954;59.950;11.014;2022-08-19T06:51:50;6.80;;;4.30;;
62863;SDS011;48954;59.950;11.014;2022-08-19T06:54:17;6.70;;;4.10;;
62863;SDS011;48954;59.950;11.014;2022-08-19T06:56:46;10.20;;;4.10;;
62863;SDS011;48954;59.950;11.014;2022-08-19T06:59:19;7.80;;;4.60;;
62863;SDS011;48954;59.950;11.014;2022-08-19T07:01:55;6.40;;;3.70;;
62863;SDS011;48954;59.950;11.014;2022-08-19T07:04:36;5.50;;;4.10;;
62863;SDS011;48954;59.950;11.014;2022-08-19T07:07:11;6.30;;;3.30;;
62863;SDS011;48954;59.950;11.014;2022-08-19T07:09:54;6.90;;;4.20;;
62863;SDS011;48954;59.950;11.014;2022-08-19T07:12:34;7.80;;;4.10;;
62863;SDS011;48954;59.950;11.014;2022-08-19T07:15:15;9.60;;;4.10;;
62863;SDS011;48954;59.950;11.014;2022-08-19T07:17:42;6.40;;;3.60;;
62863;SDS011;48954;59.950;11.014;2022-08-19T07:20:09;8.40;;;3.10;;
62863;SDS011;48954;59.950;11.014;2022-08-19T07:22:37;7.20;;;3.30;;
62863;SDS011;48954;59.950;11.014;2022-08-19T07:25:05;8.30;;;3.60;;
62863;SDS011;48954;59.950;11.014;2022-08-19T07:27:35;6.40;;;3.10;;
62863;SDS011;48954;59.950;11.014;2022-08-19T07:30:02;8.40;;;3.40;;
62863;SDS011;48954;59.950;11.014;2022-08-19T07:32:31;7.90;;;3.40;;
62863;SDS011;48954;59.950;11.014;2022-08-19T07:34:58;7.10;;;4.10;;
62863;SDS011;48954;59.950;11.014;2022-08-19T07:37:25;7.90;;;3.60;;
62863;SDS011;48954;59.950;11.014;2022-08-19T07:39:52;6.40;;;3.70;;
62863;SDS011;48954;59.950;11.014;2022-08-19T07:42:19;6.30;;;3.20;;
62863;SDS011;48954;59.950;11.014;2022-08-19T07:44:46;4.30;;;3.20;;
62863;SDS011;48954;59.950;11.014;2022-08-19T07:47:13;5.90;;;3.40;;
62863;SDS011;48954;59.950;11.014;2022-08-19T07:49:40;4.70;;;3.20;;
62863;SDS011;48954;59.950;11.014;2022-08-19T07:52:09;6.10;;;3.50;;
62863;SDS011;48954;59.950;11.014;2022-08-19T07:54:42;6.50;;;3.50;;
62863;SDS011;48954;59.950;11.014;2022-08-19T07:57:08;6.50;;;4.00;;
62863;SDS011;48954;59.950;11.014;2022-08-19T07:59:38;6.10;;;4.30;;
62863;SDS011;48954;59.950;11.014;2022-08-19T08:02:18;6.90;;;4.10;;
62863;SDS011;48954;59.950;11.014;2022-08-19T08:04:45;6.70;;;3.10;;
62863;SDS011;48954;59.950;11.014;2022-08-19T08:07:23;7.50;;;3.50;;
62863;SDS011;48954;59.950;11.014;2022-08-19T08:09:52;7.00;;;3.80;;
62863;SDS011;48954;59.950;11.014;2022-08-19T08:12:36;6.50;;;3.90;;
62863;SDS011;48954;59.950;11.014;2022-08-19T08:15:06;7.00;;;3.80;;
62863;SDS011;48954;59.950;11.014;2022-08-19T08:17:42;7.20;;;3.60;;
62863;SDS011;48954;59.950;11.014;2022-08-19T08:20:12;7.80;;;3.70;;
62863;SDS011;48954;59.950;11.014;2022-08-19T08:22:43;4.80;;;3.00;;
62863;SDS011;48954;59.950;11.014;2022-08-19T08:25:13;6.80;;;3.70;;
62863;SDS011;48954;59.950;11.014;2022-08-19T08:27:44;7.20;;;3.60;;
62863;SDS011;48954;59.950;11.014;2022-08-19T08:30:18;7.20;;;3.50;;
62863;SDS011;48954;59.950;11.014;2022-08-19T08:33:03;7.70;;;3.70;;
62863;SDS011;48954;59.950;11.014;2022-08-19T08:35:31;4.80;;;3.00;;
62863;SDS011;48954;59.950;11.014;2022-08-19T08:38:01;4.60;;;3.90;;
62863;SDS011;48954;59.950;11.014;2022-08-19T08:43:22;6.10;;;3.20;;
62863;SDS011;48954;59.950;11.014;2022-08-19T08:46:15;5.20;;;3.30;;
62863;SDS011;48954;59.950;11.014;2022-08-19T08:51:36;5.60;;;4.30;;
62863;SDS011;48954;59.950;11.014;2022-08-19T08:54:09;6.20;;;3.70;;
62863;SDS011;48954;59.950;11.014;2022-08-19T08:56:40;8.90;;;4.20;;
62863;SDS011;48954;59.950;11.014;2022-08-19T08:59:26;9.40;;;3.90;;
62863;SDS011;48954;59.950;11.014;2022-08-19T09:01:57;5.00;;;3.60;;
62863;SDS011;48954;59.950;11.014;2022-08-19T09:04:25;6.50;;;3.50;;
62863;SDS011;48954;59.950;11.014;2022-08-19T09:09:48;7.40;;;3.80;;
62863;SDS011;48954;59.950;11.014;2022-08-19T09:12:31;5.80;;;3.70;;
62863;SDS011;48954;59.950;11.014;2022-08-19T09:15:24;6.20;;;3.60;;
62863;SDS011;48954;59.950;11.014;2022-08-19T09:18:11;5.70;;;3.80;;
62863;SDS011;48954;59.950;11.014;2022-08-19T09:20:42;6.20;;;4.00;;
62863;SDS011;48954;59.950;11.014;2022-08-19T09:23:09;6.60;;;3.60;;
62863;SDS011;48954;59.950;11.014;2022-08-19T09:25:49;6.30;;;4.00;;
62863;SDS011;48954;59.950;11.014;2022-08-19T09:28:19;5.70;;;3.50;;
62863;SDS011;48954;59.950;11.014;2022-08-19T09:30:49;7.70;;;3.90;;
62863;SDS011;48954;59.950;11.014;2022-08-19T09:33:20;7.30;;;3.70;;
62863;SDS011;48954;59.950;11.014;2022-08-19T09:35:48;6.20;;;3.60;;
62863;SDS011;48954;59.950;11.014;2022-08-19T09:38:15;5.20;;;3.90;;
62863;SDS011;48954;59.950;11.014;2022-08-19T09:40:42;5.10;;;3.90;;
62863;SDS011;48954;59.950;11.014;2022-08-19T09:43:09;6.00;;;4.30;;
62863;SDS011;48954;59.950;11.014;2022-08-19T09:45:37;7.40;;;4.90;;
62863;SDS011;48954;59.950;11.014;2022-08-19T09:48:06;6.40;;;3.90;;
62863;SDS011;48954;59.950;11.014;2022-08-19T09:50:35;9.20;;;4.40;;
62863;SDS011;48954;59.950;11.014;2022-08-19T09:53:06;6.10;;;3.50;;
62863;SDS011;48954;59.950;11.014;2022-08-19T09:55:33;6.60;;;4.10;;
62863;SDS011;48954;59.950;11.014;2022-08-19T09:58:01;6.00;;;3.80;;
62863;SDS011;48954;59.950;11.014;2022-08-19T10:00:29;6.10;;;3.90;;
62863;SDS011;48954;59.950;11.014;2022-08-19T10:02:58;6.10;;;3.70;;
62863;SDS011;48954;59.950;11.014;2022-08-19T10:05:26;5.20;;;4.10;;
62863;SDS011;48954;59.950;11.014;2022-08-19T10:07:57;6.90;;;4.40;;
62863;SDS011;48954;59.950;11.014;2022-08-19T10:10:24;6.80;;;4.80;;
62863;SDS011;48954;59.950;11.014;2022-08-19T10:12:51;9.10;;;5.30;;
62863;SDS011;48954;59.950;11.014;2022-08-19T10:15:18;7.50;;;5.10;;
62863;SDS011;48954;59.950;11.014;2022-08-19T10:17:45;7.10;;;5.00;;
62863;SDS011;48954;59.950;11.014;2022-08-19T10:20:13;7.70;;;5.10;;
62863;SDS011;48954;59.950;11.014;2022-08-19T10:22:47;7.20;;;4.80;;
62863;SDS011;48954;59.950;11.014;2022-08-19T10:25:18;6.20;;;4.90;;
62863;SDS011;48954;59.950;11.014;2022-08-19T10:27:45;6.10;;;4.90;;
62863;SDS011;48954;59.950;11.014;2022-08-19T10:30:12;6.80;;;4.70;;
62863;SDS011;48954;59.950;11.014;2022-08-19T10:32:40;7.30;;;5.00;;
62863;SDS011;48954;59.950;11.014;2022-08-19T10:35:11;6.70;;;4.90;;
62863;SDS011;48954;59.950;11.014;2022-08-19T10:37:42;8.40;;;4.70;;
62863;SDS011;48954;59.950;11.014;2022-08-19T10:40:09;7.80;;;4.00;;
62863;SDS011;48954;59.950;11.014;2022-08-19T10:42:36;4.70;;;3.40;;
62863;SDS011;48954;59.950;11.014;2022-08-19T10:45:07;6.70;;;5.00;;
62863;SDS011;48954;59.950;11.014;2022-08-19T10:47:34;7.10;;;5.20;;
62863;SDS011;48954;59.950;11.014;2022-08-19T10:50:02;8.70;;;5.00;;
62863;SDS011;48954;59.950;11.014;2022-08-19T10:52:30;7.70;;;5.00;;
62863;SDS011;48954;59.950;11.014;2022-08-19T10:54:58;8.20;;;5.00;;
62863;SDS011;48954;59.950;11.014;2022-08-19T10:57:32;7.40;;;5.10;;
62863;SDS011;48954;59.950;11.014;2022-08-19T10:59:59;8.30;;;5.00;;
62863;SDS011;48954;59.950;11.014;2022-08-19T11:02:32;8.00;;;5.20;;
62863;SDS011;48954;59.950;11.014;2022-08-19T11:05:01;8.90;;;4.30;;
62863;SDS011;48954;59.950;11.014;2022-08-19T11:07:41;8.00;;;5.30;;
62863;SDS011;48954;59.950;11.014;2022-08-19T11:10:19;7.60;;;4.70;;
62863;SDS011;48954;59.950;11.014;2022-08-19T11:12:47;6.60;;;5.20;;
62863;SDS011;48954;59.950;11.014;2022-08-19T11:15:14;8.20;;;4.70;;
62863;SDS011;48954;59.950;11.014;2022-08-19T11:17:44;10.20;;;5.00;;
62863;SDS011;48954;59.950;11.014;2022-08-19T11:20:12;7.00;;;4.90;;
62863;SDS011;48954;59.950;11.014;2022-08-19T11:22:53;7.90;;;4.90;;
62863;SDS011;48954;59.950;11.014;2022-08-19T11:25:20;6.00;;;4.60;;
62863;SDS011;48954;59.950;11.014;2022-08-19T11:27:46;7.50;;;4.80;;
62863;SDS011;48954;59.950;11.014;2022-08-19T11:30:14;8.70;;;4.90;;
62863;SDS011;48954;59.950;11.014;2022-08-19T11:32:44;9.70;;;5.20;;
62863;SDS011;48954;59.950;11.014;2022-08-19T11:35:13;6.70;;;4.70;;
62863;SDS011;48954;59.950;11.014;2022-08-19T11:37:41;7.10;;;5.10;;
62863;SDS011;48954;59.950;11.014;2022-08-19T11:40:08;8.90;;;5.70;;
62863;SDS011;48954;59.950;11.014;2022-08-19T11:42:36;12.20;;;5.70;;
62863;SDS011;48954;59.950;11.014;2022-08-19T11:45:03;7.20;;;5.00;;
62863;SDS011;48954;59.950;11.014;2022-08-19T11:47:30;8.70;;;4.90;;
62863;SDS011;48954;59.950;11.014;2022-08-19T11:49:57;8.90;;;4.90;;
62863;SDS011;48954;59.950;11.014;2022-08-19T11:52:25;9.70;;;4.90;;
62863;SDS011;48954;59.950;11.014;2022-08-19T11:54:51;7.50;;;4.90;;
62863;SDS011;48954;59.950;11.014;2022-08-19T11:57:18;6.80;;;5.00;;
62863;SDS011;48954;59.950;11.014;2022-08-19T11:59:49;7.80;;;5.10;;
62863;SDS011;48954;59.950;11.014;2022-08-19T12:02:27;7.90;;;5.10;;
62863;SDS011;48954;59.950;11.014;2022-08-19T12:05:08;6.80;;;4.50;;
62863;SDS011;48954;59.950;11.014;2022-08-19T12:07:51;6.50;;;4.90;;
62863;SDS011;48954;59.950;11.014;2022-08-19T12:10:29;6.80;;;4.50;;
62863;SDS011;48954;59.950;11.014;2022-08-19T12:12:57;7.90;;;4.70;;
62863;SDS011;48954;59.950;11.014;2022-08-19T12:15:38;9.00;;;5.00;;
62863;SDS011;48954;59.950;11.014;2022-08-19T12:18:20;9.60;;;4.90;;
62863;SDS011;48954;59.950;11.014;2022-08-19T12:20:54;10.00;;;5.00;;
62863;SDS011;48954;59.950;11.014;2022-08-19T12:23:36;6.20;;;4.60;;
62863;SDS011;48954;59.950;11.014;2022-08-19T12:26:03;8.20;;;4.80;;
62863;SDS011;48954;59.950;11.014;2022-08-19T12:28:51;7.30;;;4.70;;
62863;SDS011;48954;59.950;11.014;2022-08-19T12:31:22;6.70;;;5.20;;
62863;SDS011;48954;59.950;11.014;2022-08-19T12:34:03;9.40;;;4.50;;
62863;SDS011;48954;59.950;11.014;2022-08-19T12:36:44;8.20;;;4.20;;
62863;SDS011;48954;59.950;11.014;2022-08-19T12:39:24;8.30;;;4.10;;
62863;SDS011;48954;59.950;11.014;2022-08-19T12:42:16;9.10;;;4.80;;
62863;SDS011;48954;59.950;11.014;2022-08-19T12:44:45;10.00;;;4.30;;
62863;SDS011;48954;59.950;11.014;2022-08-19T12:47:12;11.60;;;4.60;;
62863;SDS011;48954;59.950;11.014;2022-08-19T12:49:41;7.80;;;4.40;;
62863;SDS011;48954;59.950;11.014;2022-08-19T12:52:15;6.90;;;4.30;;
62863;SDS011;48954;59.950;11.014;2022-08-19T12:54:43;8.70;;;5.10;;
62863;SDS011;48954;59.950;11.014;2022-08-19T12:57:10;10.40;;;4.50;;
62863;SDS011;48954;59.950;11.014;2022-08-19T12:59:38;7.70;;;4.40;;
62863;SDS011;48954;59.950;11.014;2022-08-19T13:02:07;11.00;;;4.10;;
62863;SDS011;48954;59.950;11.014;2022-08-19T13:04:34;8.60;;;4.60;;
62863;SDS011;48954;59.950;11.014;2022-08-19T13:07:03;10.00;;;4.80;;
62863;SDS011;48954;59.950;11.014;2022-08-19T13:09:30;16.20;;;7.50;;
62863;SDS011;48954;59.950;11.014;2022-08-19T13:11:57;9.90;;;5.60;;
62863;SDS011;48954;59.950;11.014;2022-08-19T13:14:25;9.30;;;4.40;;
62863;SDS011;48954;59.950;11.014;2022-08-19T13:16:52;9.40;;;4.60;;
62863;SDS011;48954;59.950;11.014;2022-08-19T13:19:22;9.20;;;4.90;;
62863;SDS011;48954;59.950;11.014;2022-08-19T13:21:49;7.80;;;4.50;;
62863;SDS011;48954;59.950;11.014;2022-08-19T13:24:20;8.20;;;5.20;;
62863;SDS011;48954;59.950;11.014;2022-08-19T13:26:54;10.90;;;5.00;;
62863;SDS011;48954;59.950;11.014;2022-08-19T13:29:25;8.20;;;4.40;;
62863;SDS011;48954;59.950;11.014;2022-08-19T13:31:52;7.30;;;4.70;;
62863;SDS011;48954;59.950;11.014;2022-08-19T13:34:38;12.50;;;4.70;;
62863;SDS011;48954;59.950;11.014;2022-08-19T13:37:08;11.10;;;4.60;;
62863;SDS011;48954;59.950;11.014;2022-08-19T13:39:35;7.90;;;4.40;;
62863;SDS011;48954;59.950;11.014;2022-08-19T13:42:02;10.60;;;4.60;;
62863;SDS011;48954;59.950;11.014;2022-08-19T13:44:29;10.40;;;4.30;;
62863;SDS011;48954;59.950;11.014;2022-08-19T13:47:03;8.10;;;4.00;;
62863;SDS011;48954;59.950;11.014;2022-08-19T13:49:33;8.20;;;4.00;;
62863;SDS011;48954;59.950;11.014;2022-08-19T13:52:05;10.10;;;4.40;;
62863;SDS011;48954;59.950;11.014;2022-08-19T13:54:33;8.30;;;4.00;;
62863;SDS011;48954;59.950;11.014;2022-08-19T13:57:00;8.60;;;3.90;;
62863;SDS011;48954;59.950;11.014;2022-08-19T13:59:29;7.50;;;3.90;;
62863;SDS011;48954;59.950;11.014;2022-08-19T14:01:59;8.00;;;4.10;;
62863;SDS011;48954;59.950;11.014;2022-08-19T14:04:40;10.40;;;4.10;;
62863;SDS011;48954;59.950;11.014;2022-08-19T14:07:07;9.60;;;4.50;;
62863;SDS011;48954;59.950;11.014;2022-08-19T14:09:34;13.50;;;7.00;;
62863;SDS011;48954;59.950;11.014;2022-08-19T14:12:02;10.60;;;6.20;;
62863;SDS011;48954;59.950;11.014;2022-08-19T14:14:29;11.90;;;5.70;;
62863;SDS011;48954;59.950;11.014;2022-08-19T14:16:56;8.60;;;3.80;;
62863;SDS011;48954;59.950;11.014;2022-08-19T14:19:23;8.30;;;3.80;;
62863;SDS011;48954;59.950;11.014;2022-08-19T14:21:49;4.70;;;3.20;;
62863;SDS011;48954;59.950;11.014;2022-08-19T14:24:16;4.30;;;2.70;;
62863;SDS011;48954;59.950;11.014;2022-08-19T14:26:53;7.10;;;3.80;;
62863;SDS011;48954;59.950;11.014;2022-08-19T14:29:20;6.40;;;3.10;;
62863;SDS011;48954;59.950;11.014;2022-08-19T14:31:46;6.50;;;3.20;;
62863;SDS011;48954;59.950;11.014;2022-08-19T14:34:13;6.70;;;2.70;;
62863;SDS011;48954;59.950;11.014;2022-08-19T14:36:40;5.60;;;2.70;;
62863;SDS011;48954;59.950;11.014;2022-08-19T14:39:07;4.90;;;2.90;;
62863;SDS011;48954;59.950;11.014;2022-08-19T14:41:39;5.50;;;3.30;;
62863;SDS011;48954;59.950;11.014;2022-08-19T14:44:07;5.60;;;2.80;;
62863;SDS011;48954;59.950;11.014;2022-08-19T14:46:37;4.60;;;2.90;;
62863;SDS011;48954;59.950;11.014;2022-08-19T14:49:06;5.40;;;3.00;;